Time;durP1;ratioP1;P1;durP2;ratioP2;P2;SDS_P1;SDS_P2;PMS_P1;PMS_P2;Temp;Humidity;BMP_temperature;BMP_pressure;BME280_temperature;BME280_humidity;BME280_pressure;Samples;Min_cycle;Max_cycle;Signal;HPM_P1;HPM_P2
2022/08/28 00:00:34;;;;;;;29.90;21.67;;;17.90;99.90;;;;;;5004457;28;20113;-75
2022/08/28 00:03:00;;;;;;;30.33;22.70;;;18.00;99.90;;;;;;4991583;28;20026;-79
2022/08/28 00:05:28;;;;;;;25.58;20.25;;;18.00;99.90;;;;;;5005797;28;20037;-76
2022/08/28 00:07:55;;;;;;;30.00;22.00;;;18.00;99.90;;;;;;5006413;28;20034;-77
2022/08/28 00:10:22;;;;;;;31.45;21.00;;;17.90;99.90;;;;;;5004825;28;20477;-76
2022/08/28 00:12:50;;;;;;;32.10;21.27;;;17.90;99.90;;;;;;5005897;28;20037;-74
2022/08/28 00:15:20;;;;;;;32.75;23.10;;;17.90;99.90;;;;;;5000088;28;20018;-74
2022/08/28 00:17:46;;;;;;;30.20;21.63;;;18.00;99.90;;;;;;4999185;28;20022;-74
2022/08/28 00:20:19;;;;;;;30.00;22.45;;;17.80;99.90;;;;;;5003438;28;20033;-74
2022/08/28 00:22:45;;;;;;;29.38;20.98;;;17.90;99.90;;;;;;5005489;28;20109;-74
2022/08/28 00:25:12;;;;;;;27.08;20.90;;;17.90;99.90;;;;;;5001620;28;20033;-74
2022/08/28 00:27:53;;;;;;;26.63;21.48;;;18.00;99.90;;;;;;4998692;28;20034;-75
2022/08/28 00:30:50;;;;;;;31.42;20.00;;;18.00;99.90;;;;;;5000728;28;20095;-72
2022/08/28 00:33:15;;;;;;;;;;;18.00;99.90;;;;;;4978825;28;20026;-75
2022/08/28 00:35:42;;;;;;;24.60;20.27;;;18.00;99.90;;;;;;4998854;28;19912;-74
2022/08/28 00:38:11;;;;;;;28.83;21.33;;;17.90;99.90;;;;;;5002738;28;20022;-74
2022/08/28 00:40:38;;;;;;;28.23;20.50;;;17.80;99.90;;;;;;4992066;28;20035;-74
2022/08/28 00:43:05;;;;;;;24.98;19.83;;;17.80;99.90;;;;;;4992220;28;20117;-74
2022/08/28 00:45:32;;;;;;;30.20;20.58;;;18.00;99.90;;;;;;4992076;28;20069;-74
2022/08/28 00:47:58;;;;;;;29.67;21.27;;;17.90;99.90;;;;;;4991965;28;20026;-74
2022/08/28 00:50:27;;;;;;;30.67;21.00;;;18.00;99.90;;;;;;4992006;28;20026;-74
2022/08/28 00:52:57;;;;;;;26.30;21.02;;;17.90;99.90;;;;;;4993016;28;20049;-74
2022/08/28 00:55:26;;;;;;;25.88;19.48;;;18.00;99.90;;;;;;4996306;28;20165;-75
2022/08/28 00:57:55;;;;;;;26.15;19.63;;;17.90;99.90;;;;;;4991857;28;20396;-75
2022/08/28 01:00:26;;;;;;;28.80;19.95;;;17.80;99.90;;;;;;4992003;28;20027;-76
2022/08/28 01:02:52;;;;;;;27.38;19.50;;;17.80;99.90;;;;;;4991899;28;20088;-73
2022/08/28 01:05:19;;;;;;;29.50;19.80;;;17.80;99.90;;;;;;4991974;28;20050;-74
2022/08/28 01:07:46;;;;;;;24.67;19.23;;;17.80;99.90;;;;;;4991754;28;20069;-74
2022/08/28 01:10:16;;;;;;;27.80;19.70;;;17.90;99.90;;;;;;4997899;28;20084;-74
2022/08/28 01:12:43;;;;;;;24.33;19.83;;;18.10;99.90;;;;;;4998549;28;20023;-75
2022/08/28 01:15:12;;;;;;;27.70;20.73;;;17.90;99.90;;;;;;4986161;28;20018;-74
2022/08/28 01:17:42;;;;;;;28.25;20.00;;;17.80;99.90;;;;;;4998310;28;20019;-75
2022/08/28 01:20:14;;;;;;;28.00;21.27;;;17.70;99.90;;;;;;5002327;28;20026;-75
2022/08/28 01:22:43;;;;;;;27.60;21.02;;;17.60;99.90;;;;;;5005077;28;20105;-76
2022/08/28 01:25:17;;;;;;;25.98;19.83;;;17.70;99.90;;;;;;5001357;28;20025;-75
2022/08/28 01:27:43;;;;;;;28.05;21.02;;;17.80;99.90;;;;;;4998240;28;20031;-74
2022/08/28 01:30:18;;;;;;;31.17;22.08;;;17.70;99.90;;;;;;5000645;28;20030;-75
2022/08/28 01:32:55;;;;;;;28.58;21.45;;;17.60;99.90;;;;;;5006924;28;20104;-75
2022/08/28 01:35:25;;;;;;;28.38;20.23;;;17.50;99.90;;;;;;5008796;28;20480;-77
2022/08/28 01:37:52;;;;;;;29.08;21.98;;;17.60;99.90;;;;;;5002769;28;20037;-77
2022/08/28 01:40:26;;;;;;;27.15;20.40;;;17.50;99.90;;;;;;5001743;28;20030;-75
2022/08/28 01:42:52;;;;;;;29.40;21.13;;;17.50;99.90;;;;;;5006078;28;20031;-74
2022/08/28 01:45:19;;;;;;;29.80;22.63;;;17.40;99.90;;;;;;5004199;28;20027;-73
2022/08/28 01:47:46;;;;;;;28.05;21.45;;;17.40;99.90;;;;;;5001986;28;20030;-75
2022/08/28 01:50:16;;;;;;;37.42;22.25;;;17.40;99.90;;;;;;5014561;28;20029;-76
2022/08/28 01:52:42;;;;;;;31.08;22.17;;;17.40;99.90;;;;;;4998828;28;20500;-76
2022/08/28 01:55:08;;;;;;;29.30;22.65;;;17.30;99.90;;;;;;4995028;28;20042;-75
2022/08/28 01:57:40;;;;;;;33.42;22.65;;;17.30;99.90;;;;;;4994518;28;20037;-74
2022/08/28 02:00:07;;;;;;;28.95;21.83;;;17.30;99.90;;;;;;4994715;28;20049;-74
2022/08/28 02:02:32;;;;;;;29.67;22.55;;;17.40;99.90;;;;;;4994748;28;20038;-74
2022/08/28 02:04:58;;;;;;;27.98;21.08;;;17.40;99.90;;;;;;4994777;28;20041;-74
2022/08/28 02:07:23;;;;;;;27.98;21.17;;;17.40;99.90;;;;;;4994548;28;20037;-75
2022/08/28 02:09:49;;;;;;;27.65;21.38;;;17.40;99.90;;;;;;4998049;28;20065;-75
2022/08/28 02:12:15;;;;;;;27.48;22.23;;;17.40;99.90;;;;;;5014252;28;20017;-77
2022/08/28 02:14:40;;;;;;;29.88;22.45;;;17.40;99.90;;;;;;5001004;28;20436;-75
2022/08/28 02:17:06;;;;;;;29.67;20.95;;;17.50;99.90;;;;;;5012577;28;20498;-76
2022/08/28 02:19:31;;;;;;;29.15;20.95;;;17.40;99.90;;;;;;4997303;28;20034;-75
2022/08/28 02:21:57;;;;;;;29.52;20.88;;;17.60;99.90;;;;;;4993134;28;20026;-75
2022/08/28 02:24:23;;;;;;;24.88;20.25;;;17.30;99.90;;;;;;5011248;28;20516;-76
2022/08/28 02:26:48;;;;;;;25.10;20.15;;;18.00;99.90;;;;;;5003952;28;20094;-75
2022/08/28 02:29:14;;;;;;;27.33;20.77;;;17.70;99.90;;;;;;5007695;28;20026;-76
2022/08/28 02:31:39;;;;;;;22.75;20.13;;;17.70;99.90;;;;;;4994214;28;20034;-76
2022/08/28 02:34:05;;;;;;;28.77;20.65;;;17.70;99.90;;;;;;4997471;28;20022;-76
2022/08/28 02:36:32;;;;;;;28.67;21.63;;;17.80;99.90;;;;;;5005257;28;20049;-76
2022/08/28 02:38:58;;;;;;;27.15;21.23;;;17.60;99.90;;;;;;4993149;28;20121;-76
2022/08/28 02:41:24;;;;;;;31.42;22.13;;;17.50;99.90;;;;;;5002963;28;20510;-76
2022/08/28 02:43:50;;;;;;;25.15;20.83;;;17.50;99.90;;;;;;5013204;28;20439;-77
2022/08/28 02:46:15;;;;;;;29.10;22.00;;;17.70;99.90;;;;;;4997996;28;20022;-77
2022/08/28 02:48:41;;;;;;;27.73;21.85;;;17.80;99.90;;;;;;4992803;28;20397;-77
2022/08/28 02:51:10;;;;;;;26.58;21.65;;;17.80;99.90;;;;;;4992767;28;20407;-76
2022/08/28 02:53:35;;;;;;;31.60;22.23;;;17.90;99.90;;;;;;5010899;28;20101;-76
2022/08/28 02:56:01;;;;;;;29.50;21.98;;;17.90;99.90;;;;;;5012378;28;20457;-76
2022/08/28 02:58:31;;;;;;;36.40;23.40;;;17.80;99.90;;;;;;4995923;28;20072;-76
2022/08/28 03:00:58;;;;;;;30.70;22.33;;;17.60;99.90;;;;;;4994209;28;20057;-76
2022/08/28 03:03:23;;;;;;;34.38;24.33;;;17.50;99.90;;;;;;4997151;28;20062;-76
2022/08/28 03:05:49;;;;;;;33.53;23.13;;;17.40;99.90;;;;;;5003686;28;20104;-75
2022/08/28 03:08:15;;;;;;;29.58;22.88;;;17.70;99.90;;;;;;4999735;28;20076;-75
2022/08/28 03:10:40;;;;;;;33.88;24.23;;;17.60;99.90;;;;;;5011900;28;20030;-74
2022/08/28 03:13:06;;;;;;;36.28;23.52;;;17.50;99.90;;;;;;5013073;28;20407;-74
2022/08/28 03:15:32;;;;;;;31.33;24.10;;;17.40;99.90;;;;;;5013085;28;20136;-74
2022/08/28 03:17:57;;;;;;;31.45;25.17;;;17.50;99.90;;;;;;5012751;28;20029;-74
2022/08/28 03:20:23;;;;;;;34.10;24.65;;;17.30;99.90;;;;;;5012875;28;20440;-74
2022/08/28 03:25:33;;;;;;;35.25;24.88;;;17.20;99.90;;;;;;5013207;28;20511;-73
2022/08/28 03:27:58;;;;;;;29.33;23.63;;;17.30;99.90;;;;;;5006099;28;20026;-73
2022/08/28 03:30:24;;;;;;;33.90;24.25;;;17.10;99.90;;;;;;4993059;28;20061;-73
2022/08/28 03:32:50;;;;;;;31.48;23.75;;;17.10;99.90;;;;;;4993120;28;20022;-73
2022/08/28 03:35:16;;;;;;;34.95;24.48;;;17.20;99.90;;;;;;4991832;28;20030;-74
2022/08/28 03:37:41;;;;;;;32.15;24.58;;;17.10;99.90;;;;;;4997935;28;20133;-75
2022/08/28 03:40:08;;;;;;;33.35;25.35;;;17.00;99.90;;;;;;5012634;28;20388;-74
2022/08/28 03:42:34;;;;;;;34.25;23.73;;;17.10;99.90;;;;;;4999292;28;20076;-74
2022/08/28 03:44:59;;;;;;;33.55;24.70;;;17.20;99.90;;;;;;5001039;28;20038;-76
2022/08/28 03:47:27;;;;;;;35.15;24.13;;;17.10;99.90;;;;;;4997404;28;20025;-75
2022/08/28 03:49:59;;;;;;;31.73;22.88;;;17.00;99.90;;;;;;4999730;28;20022;-75
2022/08/28 03:52:24;;;;;;;33.38;23.95;;;17.10;99.90;;;;;;4985872;28;20041;-75
2022/08/28 03:54:51;;;;;;;28.65;22.70;;;17.20;99.90;;;;;;4999309;28;20035;-75
2022/08/28 03:57:18;;;;;;;28.65;23.75;;;17.20;99.90;;;;;;5003597;28;20022;-75
2022/08/28 03:59:49;;;;;;;29.33;22.80;;;17.20;99.90;;;;;;5005919;28;20439;-75
2022/08/28 04:02:18;;;;;;;32.08;24.05;;;17.10;99.90;;;;;;4992911;28;20042;-75
2022/08/28 04:04:44;;;;;;;36.10;23.80;;;17.00;99.90;;;;;;5004566;28;20030;-76
2022/08/28 04:07:10;;;;;;;34.40;23.60;;;16.90;99.90;;;;;;5000821;28;20112;-75
2022/08/28 04:09:35;;;;;;;31.05;23.30;;;17.10;99.90;;;;;;4995613;28;20121;-76
2022/08/28 04:12:01;;;;;;;32.63;24.35;;;17.10;99.90;;;;;;5001121;28;20033;-76
2022/08/28 04:14:27;;;;;;;30.13;22.30;;;17.10;99.90;;;;;;4997192;28;20469;-74
2022/08/28 04:16:52;;;;;;;30.70;21.75;;;17.00;99.90;;;;;;5000341;28;20026;-74
2022/08/28 04:19:18;;;;;;;26.73;21.85;;;17.10;99.90;;;;;;5011974;28;20108;-76
2022/08/28 04:21:43;;;;;;;30.63;22.35;;;17.10;99.90;;;;;;5012408;28;20476;-76
2022/08/28 04:24:09;;;;;;;27.95;22.27;;;17.30;99.90;;;;;;4998954;28;20396;-76
2022/08/28 04:26:35;;;;;;;25.70;22.58;;;17.30;99.90;;;;;;5004196;28;20038;-76
2022/08/28 04:29:03;;;;;;;30.83;22.00;;;17.30;99.90;;;;;;5005200;28;20050;-77
2022/08/28 04:31:29;;;;;;;29.15;21.05;;;17.40;99.90;;;;;;5000766;28;20415;-75
2022/08/28 04:33:54;;;;;;;28.13;21.40;;;17.10;99.90;;;;;;4998751;28;20488;-75
2022/08/28 04:36:20;;;;;;;26.65;21.33;;;17.20;99.90;;;;;;5011967;28;20030;-75
2022/08/28 04:38:46;;;;;;;26.92;20.85;;;17.30;99.90;;;;;;5011746;28;20121;-76
2022/08/28 04:41:14;;;;;;;27.42;21.20;;;17.20;99.90;;;;;;5011968;28;20026;-76
2022/08/28 04:43:40;;;;;;;31.58;21.02;;;17.30;99.90;;;;;;4997668;28;20030;-76
2022/08/28 04:46:08;;;;;;;31.65;21.27;;;17.30;99.90;;;;;;5002256;28;20081;-75
2022/08/28 04:48:34;;;;;;;27.23;21.48;;;17.20;99.90;;;;;;5007166;28;20022;-75
2022/08/28 04:51:03;;;;;;;31.27;22.25;;;17.30;99.90;;;;;;5003102;28;20436;-75
2022/08/28 04:53:29;;;;;;;29.17;21.98;;;17.10;99.90;;;;;;4994559;28;20018;-76
2022/08/28 04:55:57;;;;;;;29.40;20.83;;;17.10;99.90;;;;;;4996661;28;20553;-75
2022/08/28 04:58:24;;;;;;;30.55;22.55;;;17.10;99.90;;;;;;5000502;28;20022;-76
2022/08/28 05:00:50;;;;;;;27.17;21.55;;;17.00;99.90;;;;;;5011848;28;20025;-76
2022/08/28 05:03:16;;;;;;;27.13;20.67;;;17.00;99.90;;;;;;4999053;28;20086;-76
2022/08/28 05:06:02;;;;;;;26.50;20.05;;;17.10;99.90;;;;;;5002288;28;20027;-76
2022/08/28 05:08:28;;;;;;;29.25;21.10;;;17.00;99.90;;;;;;5008245;28;20022;-76
2022/08/28 05:10:54;;;;;;;30.10;22.25;;;17.20;99.90;;;;;;5008167;28;20037;-76
2022/08/28 05:13:22;;;;;;;24.60;19.92;;;17.10;99.90;;;;;;5002532;28;20026;-76
2022/08/28 05:15:50;;;;;;;31.38;21.20;;;17.10;99.90;;;;;;5002715;28;20019;-76
2022/08/28 05:18:18;;;;;;;23.95;19.77;;;17.30;99.90;;;;;;5008476;28;20488;-76
2022/08/28 05:20:45;;;;;;;25.83;19.77;;;17.20;99.90;;;;;;5008671;28;20034;-76
2022/08/28 05:23:12;;;;;;;28.73;19.63;;;17.10;99.90;;;;;;5008860;28;20034;-76
2022/08/28 05:25:40;;;;;;;24.25;18.70;;;17.00;99.90;;;;;;5007430;28;20113;-76
2022/08/28 05:28:08;;;;;;;24.73;19.75;;;17.00;99.90;;;;;;4989211;28;20022;-77
2022/08/28 05:30:34;;;;;;;25.60;19.92;;;17.00;99.90;;;;;;5000801;28;20508;-76
2022/08/28 05:33:00;;;;;;;32.63;19.85;;;17.10;99.90;;;;;;5008220;28;20023;-76
2022/08/28 05:35:26;;;;;;;26.63;18.02;;;17.10;99.90;;;;;;5008458;28;20045;-76
2022/08/28 05:37:51;;;;;;;28.17;18.90;;;17.10;99.90;;;;;;4995239;28;20023;-75
2022/08/28 05:40:20;;;;;;;28.33;19.63;;;17.10;99.90;;;;;;4994431;28;20030;-75
2022/08/28 05:42:46;;;;;;;25.55;19.95;;;17.20;99.90;;;;;;5007472;28;20023;-75
2022/08/28 05:45:12;;;;;;;25.98;19.67;;;17.00;99.90;;;;;;5002896;28;20022;-75
2022/08/28 05:47:38;;;;;;;24.25;18.73;;;17.00;99.90;;;;;;5002020;28;20385;-75
2022/08/28 05:50:04;;;;;;;27.35;18.60;;;17.00;99.90;;;;;;4999620;28;20046;-76
2022/08/28 05:52:30;;;;;;;34.65;19.15;;;17.00;99.90;;;;;;5007748;28;20447;-75
2022/08/28 05:54:56;;;;;;;26.25;18.38;;;17.10;99.90;;;;;;4999181;28;20109;-75
2022/08/28 05:57:21;;;;;;;26.10;18.08;;;17.10;99.90;;;;;;5007344;28;20077;-75
2022/08/28 05:59:48;;;;;;;23.80;17.45;;;17.00;99.90;;;;;;5007942;28;20062;-76
2022/08/28 06:02:14;;;;;;;24.60;18.42;;;17.10;99.90;;;;;;5002093;28;20060;-74
2022/08/28 06:04:39;;;;;;;27.38;18.55;;;17.00;99.90;;;;;;5000733;28;20065;-73
2022/08/28 06:07:05;;;;;;;30.13;18.90;;;17.20;99.90;;;;;;5001576;28;20053;-74
2022/08/28 06:09:30;;;;;;;27.30;18.80;;;17.30;99.90;;;;;;5014104;28;20488;-74
2022/08/28 06:11:59;;;;;;;28.20;19.83;;;17.40;99.90;;;;;;5014299;28;20708;-74
2022/08/28 06:14:26;;;;;;;26.15;18.73;;;17.50;99.90;;;;;;5012855;28;20116;-74
2022/08/28 06:16:54;;;;;;;27.70;18.95;;;17.40;99.90;;;;;;5013898;28;20160;-73
2022/08/28 06:19:22;;;;;;;26.75;18.92;;;17.50;99.90;;;;;;5012785;28;20022;-74
2022/08/28 06:21:51;;;;;;;24.60;19.20;;;17.50;99.90;;;;;;5014123;28;20060;-74
2022/08/28 06:24:17;;;;;;;20.25;18.05;;;17.40;99.90;;;;;;5013996;28;20022;-74
2022/08/28 06:26:43;;;;;;;26.02;19.85;;;17.60;99.90;;;;;;5013952;28;20377;-74
2022/08/28 06:29:11;;;;;;;34.10;19.80;;;17.50;99.90;;;;;;5013681;28;20026;-74
2022/08/28 06:31:37;;;;;;;24.00;19.65;;;17.50;99.90;;;;;;5012462;28;20033;-75
2022/08/28 06:34:03;;;;;;;27.33;19.48;;;17.60;99.90;;;;;;5013778;28;20026;-73
2022/08/28 06:36:33;;;;;;;27.50;19.35;;;17.70;99.90;;;;;;5013294;28;20580;-73
2022/08/28 06:39:00;;;;;;;28.60;19.23;;;17.70;99.90;;;;;;5011947;28;20022;-74
2022/08/28 06:41:26;;;;;;;24.15;18.65;;;17.70;99.90;;;;;;5012999;28;20060;-74
2022/08/28 06:43:53;;;;;;;26.80;16.08;;;17.80;99.90;;;;;;4998225;28;20118;-75
2022/08/28 06:46:18;;;;;;;21.30;13.25;;;17.90;99.90;;;;;;4997260;28;20027;-74
2022/08/28 06:48:44;;;;;;;18.90;12.48;;;17.80;99.90;;;;;;5006804;28;20033;-75
2022/08/28 06:51:11;;;;;;;16.98;11.32;;;18.00;99.90;;;;;;5001441;28;20026;-75
2022/08/28 06:53:38;;;;;;;15.90;11.10;;;18.00;99.90;;;;;;4993944;28;20028;-75
2022/08/28 06:56:07;;;;;;;15.93;11.05;;;18.10;99.90;;;;;;5004218;28;20395;-75
2022/08/28 06:58:36;;;;;;;16.98;10.63;;;18.20;99.90;;;;;;4998574;28;20399;-74
2022/08/28 07:01:11;;;;;;;17.88;10.70;;;18.20;99.90;;;;;;5002573;28;20161;-75
2022/08/28 07:03:38;;;;;;;17.23;10.18;;;18.20;99.90;;;;;;5006902;28;20060;-75
2022/08/28 07:06:06;;;;;;;18.02;10.40;;;18.10;99.90;;;;;;5006088;28;20036;-75
2022/08/28 07:08:33;;;;;;;19.65;9.05;;;18.40;99.90;;;;;;4993660;28;20064;-75
2022/08/28 07:11:08;;;;;;;14.98;9.63;;;18.60;99.90;;;;;;4993651;28;20025;-75
2022/08/28 07:13:34;;;;;;;17.98;8.82;;;18.60;99.90;;;;;;4987688;28;20022;-75
2022/08/28 07:15:59;;;;;;;14.05;8.48;;;18.60;99.90;;;;;;4999050;28;20018;-75
2022/08/28 07:18:25;;;;;;;19.92;8.20;;;18.70;99.90;;;;;;4993264;28;20393;-75
2022/08/28 07:20:57;;;;;;;13.43;7.70;;;18.70;99.90;;;;;;5007382;28;20373;-74
2022/08/28 07:23:23;;;;;;;11.50;7.38;;;18.70;99.90;;;;;;5012953;28;20081;-74
2022/08/28 07:25:49;;;;;;;15.93;6.20;;;18.80;99.90;;;;;;5012776;28;20420;-74
2022/08/28 07:28:15;;;;;;;12.70;6.57;;;18.90;99.90;;;;;;5012604;28;20040;-74
2022/08/28 07:30:41;;;;;;;21.75;7.72;;;18.70;99.90;;;;;;5012217;28;20026;-74
2022/08/28 07:33:07;;;;;;;14.07;7.03;;;18.80;99.90;;;;;;5004472;28;20026;-75
2022/08/28 07:35:32;;;;;;;11.93;6.63;;;18.80;99.90;;;;;;5007970;28;20044;-75
2022/08/28 07:37:58;;;;;;;19.15;6.50;;;19.10;99.90;;;;;;5012332;28;20033;-73
2022/08/28 07:40:23;;;;;;;22.73;7.18;;;19.00;99.90;;;;;;4997757;28;20030;-75
2022/08/28 07:45:34;;;;;;;16.95;6.65;;;18.90;99.90;;;;;;5004876;28;20056;-76
2022/08/28 07:48:03;;;;;;;16.33;6.55;;;18.90;99.90;;;;;;5000582;28;20054;-75
2022/08/28 07:50:28;;;;;;;17.67;6.65;;;19.10;99.90;;;;;;5010044;28;20499;-75
2022/08/28 07:52:54;;;;;;;12.35;6.32;;;19.00;99.90;;;;;;4996000;28;20038;-75
2022/08/28 07:55:19;;;;;;;18.38;6.80;;;19.00;99.90;;;;;;4991451;28;20543;-74
2022/08/28 07:57:47;;;;;;;15.73;6.80;;;19.10;99.90;;;;;;4992455;28;20062;-76
2022/08/28 08:00:13;;;;;;;11.98;6.63;;;19.20;99.90;;;;;;5005739;28;20053;-75
2022/08/28 08:02:38;;;;;;;19.83;7.38;;;19.20;99.90;;;;;;5003532;28;20030;-75
2022/08/28 08:05:05;;;;;;;14.50;6.95;;;19.30;99.90;;;;;;4994774;28;20033;-75
2022/08/28 08:07:31;;;;;;;11.25;6.35;;;19.50;99.90;;;;;;4992348;28;20026;-76
2022/08/28 08:09:57;;;;;;;11.23;6.05;;;19.40;99.90;;;;;;5006342;28;20030;-76
2022/08/28 08:12:22;;;;;;;10.02;7.00;;;19.80;99.90;;;;;;5000658;28;20592;-75
2022/08/28 08:14:48;;;;;;;12.65;7.13;;;19.90;99.90;;;;;;4994063;28;20088;-75
2022/08/28 08:17:14;;;;;;;12.80;7.47;;;19.90;99.90;;;;;;5002099;28;20026;-75
2022/08/28 08:19:39;;;;;;;11.75;6.75;;;19.70;99.90;;;;;;4998515;28;20033;-72
2022/08/28 08:22:05;;;;;;;12.88;7.22;;;19.80;99.90;;;;;;5001507;28;20049;-76
2022/08/28 08:24:31;;;;;;;15.02;6.95;;;19.90;99.90;;;;;;4990271;28;20038;-76
2022/08/28 08:26:59;;;;;;;16.80;7.95;;;20.00;99.90;;;;;;4991467;28;20023;-75
2022/08/28 08:29:26;;;;;;;14.18;7.20;;;20.10;99.90;;;;;;5005431;28;20054;-76
2022/08/28 08:31:57;;;;;;;19.10;7.63;;;20.10;99.90;;;;;;5001088;28;20503;-76
2022/08/28 08:34:24;;;;;;;13.85;8.13;;;20.10;99.90;;;;;;4997923;28;20025;-76
2022/08/28 08:36:50;;;;;;;17.17;8.13;;;19.90;99.90;;;;;;4998803;28;20096;-75
2022/08/28 08:39:15;;;;;;;12.95;8.10;;;19.90;99.90;;;;;;5005345;28;20076;-75
2022/08/28 08:41:46;;;;;;;15.15;8.15;;;20.10;99.90;;;;;;4992597;28;20060;-74
2022/08/28 08:44:22;;;;;;;11.00;7.90;;;20.30;99.90;;;;;;4995632;28;20022;-75
2022/08/28 08:47:06;;;;;;;15.23;7.63;;;20.20;99.90;;;;;;4994854;28;20028;-76
2022/08/28 08:49:35;;;;;;;15.70;8.23;;;20.20;99.90;;;;;;5004551;28;20032;-76
2022/08/28 08:52:09;;;;;;;13.30;7.95;;;20.50;99.90;;;;;;5008966;28;20022;-76
2022/08/28 08:54:40;;;;;;;17.83;7.35;;;20.70;99.90;;;;;;5006411;28;20037;-76
2022/08/28 08:57:09;;;;;;;13.10;7.35;;;20.80;99.90;;;;;;5001032;28;20022;-76
2022/08/28 08:59:37;;;;;;;12.95;7.15;;;20.90;99.90;;;;;;5002900;28;20041;-76
2022/08/28 09:02:21;;;;;;;15.73;6.93;;;20.90;99.90;;;;;;5009372;28;20556;-75
2022/08/28 09:04:56;;;;;;;14.10;7.75;;;21.00;99.90;;;;;;4996097;28;20025;-76
2022/08/28 09:07:55;;;;;;;14.90;8.03;;;21.10;99.90;;;;;;5005135;28;20024;-74
2022/08/28 09:10:23;;;;;;;14.80;8.27;;;21.00;99.90;;;;;;4993073;28;20087;-75
2022/08/28 09:12:59;;;;;;;14.13;7.20;;;21.00;99.90;;;;;;5013902;28;20530;-75
2022/08/28 09:15:30;;;;;;;16.05;7.78;;;20.70;99.90;;;;;;5014045;28;20026;-75
2022/08/28 09:18:09;;;;;;;11.88;7.68;;;20.80;99.90;;;;;;5007259;28;20029;-74
2022/08/28 09:20:34;;;;;;;15.73;7.63;;;21.20;99.90;;;;;;4995459;28;20023;-74
2022/08/28 09:23:01;;;;;;;12.52;7.63;;;21.20;99.90;;;;;;4995436;28;20053;-75
2022/08/28 09:25:54;;;;;;;15.60;7.55;;;21.20;99.90;;;;;;4995477;28;20030;-74
2022/08/28 09:28:25;;;;;;;12.20;7.25;;;21.50;99.90;;;;;;4994274;28;20416;-74
2022/08/28 09:31:03;;;;;;;13.40;7.65;;;21.40;99.90;;;;;;5009842;28;20100;-75
2022/08/28 09:33:44;;;;;;;13.40;7.43;;;21.30;99.90;;;;;;5015037;28;20097;-75
2022/08/28 09:36:30;;;;;;;13.55;6.68;;;21.70;99.90;;;;;;5014713;28;20480;-75
2022/08/28 09:39:18;;;;;;;15.10;7.15;;;21.90;99.90;;;;;;4997690;28;20026;-75
2022/08/28 09:45:17;;;;;;;11.48;6.30;;;22.10;99.90;;;;;;4989346;28;20507;-75
2022/08/28 09:47:44;;;;;;;12.77;6.13;;;21.80;99.90;;;;;;5003311;28;20467;-74
2022/08/28 09:50:32;;;;;;;15.95;6.70;;;21.40;99.90;;;;;;5014395;28;20048;-75
2022/08/28 09:53:17;;;;;;;15.45;7.05;;;21.50;99.90;;;;;;5007564;28;20030;-75
2022/08/28 09:56:32;;;;;;;13.68;6.55;;;21.20;99.90;;;;;;5014476;28;20365;-75
2022/08/28 09:59:11;;;;;;;12.90;6.45;;;21.20;99.90;;;;;;5000569;28;20399;-75
2022/08/28 10:01:48;;;;;;;13.27;6.57;;;21.20;99.90;;;;;;5014346;28;20029;-74
2022/08/28 10:04:33;;;;;;;13.30;6.50;;;21.80;99.90;;;;;;5014425;28;20026;-75
2022/08/28 10:07:23;;;;;;;11.15;6.43;;;21.70;99.90;;;;;;5012802;28;20419;-75
2022/08/28 10:10:10;;;;;;;12.85;6.00;;;21.80;99.90;;;;;;5003012;28;20049;-75
2022/08/28 10:13:13;;;;;;;12.77;6.45;;;22.00;99.90;;;;;;5013271;28;20404;-75
2022/08/28 10:16:33;;;;;;;14.07;6.38;;;21.90;99.90;;;;;;5014249;28;20062;-75
2022/08/28 10:19:10;;;;;;;10.80;6.25;;;22.20;99.90;;;;;;4956467;28;20441;-75
2022/08/28 10:21:45;;;;;;;12.98;7.30;;;22.20;99.90;;;;;;4987283;28;20046;-77
2022/08/28 10:24:29;;;;;;;12.07;7.05;;;22.40;99.90;;;;;;4994479;28;20061;-75
2022/08/28 10:27:04;;;;;;;11.73;5.93;;;22.60;99.90;;;;;;4994261;28;20019;-75
2022/08/28 10:30:03;;;;;;;11.43;6.10;;;22.50;99.90;;;;;;5007513;28;20499;-75
2022/08/28 10:32:53;;;;;;;12.85;6.75;;;22.50;99.90;;;;;;4998247;28;20554;-76
2022/08/28 10:35:30;;;;;;;9.75;5.53;;;22.30;99.90;;;;;;5013738;28;20026;-76
2022/08/28 10:38:07;;;;;;;9.25;5.80;;;22.70;99.90;;;;;;5012193;28;20080;-76
2022/08/28 10:40:59;;;;;;;12.40;6.70;;;23.10;99.90;;;;;;5012243;28;20022;-75
2022/08/28 10:43:29;;;;;;;8.07;5.68;;;22.90;99.90;;;;;;4999291;28;20038;-76
2022/08/28 10:46:09;;;;;;;12.65;6.40;;;23.10;99.90;;;;;;4993937;28;20026;-76
2022/08/28 10:48:51;;;;;;;11.30;6.07;;;22.60;99.90;;;;;;4993704;28;20022;-75
2022/08/28 10:51:23;;;;;;;10.80;6.32;;;22.50;99.90;;;;;;4993961;28;20025;-76
2022/08/28 10:53:57;;;;;;;9.90;5.97;;;22.50;99.90;;;;;;4998306;28;20018;-75
2022/08/28 10:56:29;;;;;;;8.90;5.40;;;22.70;99.90;;;;;;5013509;28;20018;-75
2022/08/28 10:59:00;;;;;;;13.80;6.93;;;22.70;99.90;;;;;;5011852;28;20030;-76
2022/08/28 11:01:35;;;;;;;10.38;5.93;;;22.50;99.90;;;;;;4999388;28;20026;-76
2022/08/28 11:04:14;;;;;;;10.88;6.43;;;22.50;99.90;;;;;;4993386;28;20038;-74
2022/08/28 11:06:49;;;;;;;12.15;5.85;;;22.60;99.90;;;;;;4999224;28;20076;-75
2022/08/28 11:09:26;;;;;;;9.40;5.95;;;22.70;99.90;;;;;;5003794;28;20048;-75
2022/08/28 11:11:58;;;;;;;11.48;6.38;;;23.00;99.90;;;;;;5012964;28;20029;-75
2022/08/28 11:14:36;;;;;;;11.35;6.10;;;22.90;99.90;;;;;;5012797;28;20494;-76
2022/08/28 11:17:09;;;;;;;11.15;5.30;;;23.10;99.90;;;;;;5001956;28;20031;-75
2022/08/28 11:20:07;;;;;;;12.68;5.95;;;23.70;99.90;;;;;;4993217;28;20049;-76
2022/08/28 11:22:41;;;;;;;8.75;5.50;;;23.30;99.90;;;;;;4993358;28;20093;-76
2022/08/28 11:25:24;;;;;;;11.20;5.47;;;23.70;99.90;;;;;;4990993;28;20069;-76
2022/08/28 11:28:24;;;;;;;9.13;5.55;;;24.20;99.90;;;;;;5008927;28;20026;-75
2022/08/28 11:31:05;;;;;;;9.27;5.75;;;24.20;99.90;;;;;;5007619;28;20045;-76
2022/08/28 11:33:54;;;;;;;9.23;5.80;;;24.50;99.90;;;;;;4991785;28;20028;-76
2022/08/28 11:36:20;;;;;;;11.55;5.82;;;24.20;99.90;;;;;;4990971;28;20018;-76
2022/08/28 11:38:54;;;;;;;10.95;5.63;;;23.70;99.90;;;;;;4990881;28;20044;-77
2022/08/28 11:41:30;;;;;;;10.57;5.10;;;23.60;99.90;;;;;;4991856;28;20030;-76
2022/08/28 11:44:08;;;;;;;8.70;5.22;;;24.10;99.90;;;;;;4995511;28;20038;-75
2022/08/28 11:46:46;;;;;;;8.85;5.28;;;24.20;99.90;;;;;;4992842;28;20034;-76
2022/08/28 11:49:33;;;;;;;9.43;5.40;;;24.70;99.90;;;;;;4987884;28;20026;-76
2022/08/28 11:52:21;;;;;;;7.97;5.35;;;24.50;99.90;;;;;;4999254;28;20455;-75
2022/08/28 11:54:59;;;;;;;7.88;5.65;;;24.00;99.90;;;;;;4989882;28;20134;-75
2022/08/28 11:57:43;;;;;;;6.68;5.35;;;24.50;99.90;;;;;;5004228;28;20472;-75
2022/08/28 12:00:41;;;;;;;8.65;5.50;;;25.30;99.90;;;;;;5004561;28;20125;-75
2022/08/28 12:03:20;;;;;;;13.07;4.90;;;25.50;99.90;;;;;;4997807;28;20045;-75
2022/08/28 12:05:49;;;;;;;9.52;5.07;;;25.50;99.90;;;;;;5002667;28;20033;-76
2022/08/28 12:08:51;;;;;;;6.47;4.85;;;25.70;99.90;;;;;;4995299;28;20030;-75
2022/08/28 12:11:38;;;;;;;6.90;4.95;;;25.60;99.90;;;;;;5005902;28;20114;-75
2022/08/28 12:14:20;;;;;;;8.30;5.18;;;25.30;99.90;;;;;;5002250;28;20468;-75
2022/08/28 12:16:58;;;;;;;7.60;5.30;;;25.50;99.90;;;;;;4984946;28;20113;-75
2022/08/28 12:19:37;;;;;;;11.23;5.15;;;25.70;99.90;;;;;;4995639;28;20026;-75
2022/08/28 12:22:05;;;;;;;7.35;5.45;;;25.60;99.90;;;;;;5000212;28;20031;-76
2022/08/28 12:24:34;;;;;;;6.88;5.55;;;26.00;99.90;;;;;;4994925;28;20041;-75
2022/08/28 12:27:01;;;;;;;8.02;5.10;;;27.00;99.90;;;;;;4999397;28;20034;-75
2022/08/28 12:29:34;;;;;;;7.80;4.72;;;27.20;99.90;;;;;;5009132;28;20076;-76
2022/08/28 12:32:11;;;;;;;8.32;5.18;;;27.10;99.90;;;;;;4998678;28;20081;-76
2022/08/28 12:34:56;;;;;;;8.25;5.75;;;25.60;99.90;;;;;;4984252;28;20484;-75
2022/08/28 12:37:24;;;;;;;8.93;5.43;;;24.60;99.90;;;;;;4994556;28;20029;-75
2022/08/28 12:39:50;;;;;;;6.78;4.88;;;24.90;99.90;;;;;;5000566;28;20041;-76
2022/08/28 12:42:18;;;;;;;8.52;4.75;;;25.00;99.90;;;;;;4996723;28;20045;-75
2022/08/28 12:44:45;;;;;;;6.22;4.93;;;25.10;99.90;;;;;;5001307;28;20026;-76
2022/08/28 12:47:16;;;;;;;11.40;5.18;;;24.90;99.90;;;;;;4991561;28;20018;-75
2022/08/28 12:49:42;;;;;;;8.85;5.45;;;24.50;99.90;;;;;;4992083;28;20047;-75
2022/08/28 12:52:17;;;;;;;9.45;5.05;;;23.90;99.90;;;;;;5003771;28;20030;-76
2022/08/28 12:54:44;;;;;;;8.27;5.18;;;23.80;99.90;;;;;;5011739;28;20050;-76
2022/08/28 12:57:13;;;;;;;6.80;4.90;;;23.90;99.90;;;;;;4997579;28;20034;-75
2022/08/28 12:59:43;;;;;;;7.75;4.95;;;24.00;99.90;;;;;;4990754;28;20097;-76